Terminal Aerodrome Forecast
Issued by NWS

Home | Current Version | Previous Version | Text Only | Print | Product List | Glossary On
Versions: 1 2 3 4 5 6 7 8 9 10 11 12 13 14
000
FTUS45 KBYZ 261745 AAA
TAFLVM
TAF AMD
KLVM 261745Z 2618/2718 26009G15KT P6SM VCTS SCT060CB BKN090
      TEMPO 2618/2619 VRB20G35KT 4SM -TSRA BKN035CB
     FM262300 30010KT P6SM SCT060 BKN100
     FM270300 VRB05KT P6SM SCT100
     FM271600 10006KT P6SM VCSH BKN060=

USA.gov is the U.S. government's official web portal to all federal, state and local government web resources and services.